createdAt,value
2022-11-24T00:00:32.170Z,55.2
2022-11-24T00:01:32.166Z,54.9
2022-11-24T00:02:32.262Z,55
2022-11-24T00:03:32.192Z,55
2022-11-24T00:04:32.432Z,55.1
2022-11-24T00:05:32.160Z,55.1
2022-11-24T00:06:32.155Z,55.1
2022-11-24T00:07:32.181Z,55.1
2022-11-24T00:08:32.160Z,55.1
2022-11-24T00:09:32.153Z,55.1
2022-11-24T00:10:32.160Z,55.1
2022-11-24T00:11:32.170Z,54.8
2022-11-24T00:12:32.163Z,54.9
2022-11-24T00:13:32.149Z,55
2022-11-24T00:15:29.650Z,55
2022-11-24T00:16:25.171Z,55
2022-11-24T00:17:25.060Z,55.1
2022-11-24T00:18:25.060Z,55.1
2022-11-24T00:19:25.092Z,55.1
2022-11-24T00:20:25.046Z,55.1
2022-11-24T00:21:25.044Z,54.8
2022-11-24T00:22:25.056Z,54.9
2022-11-24T00:23:25.043Z,54.9
2022-11-24T00:24:25.075Z,54.9
2022-11-24T00:25:25.035Z,55
2022-11-24T00:26:35.059Z,55
2022-11-24T00:27:29.188Z,55
2022-11-24T00:28:28.247Z,55
2022-11-24T00:29:27.376Z,55
2022-11-24T00:30:25.158Z,55
2022-11-24T00:31:25.096Z,54.8
2022-11-24T00:32:25.091Z,54.8
2022-11-24T00:33:25.051Z,54.9
2022-11-24T00:34:25.081Z,54.9
2022-11-24T00:35:25.036Z,54.9
2022-11-24T00:36:25.050Z,55
2022-11-24T00:37:25.132Z,55
2022-11-24T00:38:25.046Z,55
2022-11-24T00:39:25.112Z,55
2022-11-24T00:40:25.103Z,55
2022-11-24T00:41:25.076Z,54.8
2022-11-24T00:42:25.109Z,54.8
2022-11-24T00:43:25.040Z,54.9
2022-11-24T00:44:25.065Z,54.9
2022-11-24T00:45:25.027Z,55
2022-11-24T00:46:25.137Z,55
2022-11-24T00:47:25.094Z,55
2022-11-24T00:48:25.008Z,55
2022-11-24T00:49:25.059Z,55
2022-11-24T00:50:25.015Z,55
2022-11-24T00:51:25.031Z,54.8
2022-11-24T00:52:24.997Z,54.9
2022-11-24T00:53:25.013Z,54.9
2022-11-24T00:54:25.051Z,54.9
2022-11-24T00:55:25.014Z,55
2022-11-24T00:56:25.088Z,55
2022-11-24T00:57:24.995Z,55
2022-11-24T00:58:25.004Z,55
2022-11-24T00:59:25.042Z,55
2022-11-24T01:00:24.987Z,55.1
2022-11-24T01:01:25.032Z,54.8
2022-11-24T01:02:25.060Z,54.9
2022-11-24T01:03:25.013Z,54.9
2022-11-24T01:04:25.045Z,55
2022-11-24T01:05:25.013Z,55
2022-11-24T01:06:24.992Z,55
2022-11-24T01:07:25.078Z,55
2022-11-24T01:08:25.001Z,55.1
2022-11-24T01:09:24.992Z,55.1
2022-11-24T01:10:25.011Z,55.1
2022-11-24T01:11:24.993Z,54.9
2022-11-24T01:12:25.044Z,54.9
2022-11-24T01:13:24.984Z,55
2022-11-24T01:14:25.082Z,55
2022-11-24T01:15:25.110Z,55
2022-11-24T01:16:25.063Z,55.1
2022-11-24T01:17:24.980Z,55.1
2022-11-24T01:18:25.023Z,55.1
2022-11-24T01:19:24.991Z,55.1
2022-11-24T01:20:25.028Z,55.1
2022-11-24T01:21:24.976Z,54.9
2022-11-24T01:22:25.013Z,55
2022-11-24T01:23:24.965Z,55
2022-11-24T01:24:24.975Z,55.1
2022-11-24T01:25:25.014Z,55.1
2022-11-24T01:26:24.966Z,55.1
2022-11-24T01:27:25.076Z,55.1
2022-11-24T01:28:24.957Z,55.1
2022-11-24T01:29:25.015Z,55.1
2022-11-24T01:30:24.981Z,55.2
2022-11-24T01:31:25.083Z,55
2022-11-24T01:32:24.965Z,55
2022-11-24T01:33:24.955Z,55.1
2022-11-24T01:34:25.007Z,55.1
2022-11-24T01:35:24.973Z,55.1
2022-11-24T01:36:24.983Z,55.1
2022-11-24T01:37:25.023Z,55.2
2022-11-24T01:38:24.951Z,55.2
2022-11-24T01:39:25.356Z,55.2
2022-11-24T01:40:26.024Z,55.2
2022-11-24T01:41:25.049Z,55
2022-11-24T01:42:25.017Z,55.1
2022-11-24T01:43:24.966Z,55.1
2022-11-24T01:44:24.979Z,55.2
2022-11-24T01:45:24.944Z,55.2
2022-11-24T01:46:24.994Z,55.2
2022-11-24T01:47:24.993Z,55.2
2022-11-24T01:48:27.336Z,55.2
2022-11-24T01:49:25.001Z,55.2
2022-11-24T01:50:24.972Z,55.2
2022-11-24T01:51:25.062Z,55.1
2022-11-24T01:52:24.986Z,55.1
2022-11-24T01:53:24.931Z,55.2
2022-11-24T01:54:24.925Z,55.2
2022-11-24T01:55:24.978Z,55.2
2022-11-24T01:56:24.932Z,55.2
2022-11-24T01:57:24.949Z,55.2
2022-11-24T01:58:24.969Z,55.3
2022-11-24T01:59:24.938Z,55.3
2022-11-24T02:00:24.969Z,55.3
2022-11-24T02:01:25.016Z,55.1
2022-11-24T02:02:24.963Z,55.2
2022-11-24T02:03:24.919Z,55.2
2022-11-24T02:04:24.924Z,55.2
2022-11-24T02:05:24.946Z,55.3
2022-11-24T02:06:24.907Z,55.3
2022-11-24T02:07:25.042Z,55.3
2022-11-24T02:08:24.947Z,55.3
2022-11-24T02:09:24.923Z,55.3
2022-11-24T02:10:24.913Z,55.3
2022-11-24T02:11:24.924Z,55.2
2022-11-24T02:12:24.909Z,55.2
2022-11-24T02:13:24.948Z,55.3
2022-11-24T02:14:24.914Z,55.3
2022-11-24T02:15:24.926Z,55.3
2022-11-24T02:16:24.957Z,55.3
2022-11-24T02:17:24.905Z,55.3
2022-11-24T02:18:24.941Z,55.4
2022-11-24T02:19:24.919Z,55.4
2022-11-24T02:20:25.192Z,55.4
2022-11-24T02:21:24.978Z,55.3
2022-11-24T02:22:24.987Z,55.3
2022-11-24T02:23:25.007Z,55.3
2022-11-24T02:24:24.907Z,55.4
2022-11-24T02:25:24.895Z,55.4
2022-11-24T02:26:24.891Z,55.4
2022-11-24T02:27:24.875Z,55.4
2022-11-24T02:28:24.925Z,55.4
2022-11-24T02:29:24.880Z,55.4
2022-11-24T02:30:24.891Z,55.5
2022-11-24T02:31:24.967Z,55.3
2022-11-24T02:32:24.891Z,55.3
2022-11-24T02:33:24.898Z,55.4
2022-11-24T02:34:24.866Z,55.4
2022-11-24T02:35:24.884Z,55.4
2022-11-24T02:36:24.949Z,55.5
2022-11-24T02:37:24.889Z,55.5
2022-11-24T02:38:24.977Z,55.5
2022-11-24T02:39:24.887Z,55.5
2022-11-24T02:40:24.919Z,55.5
2022-11-24T02:41:24.862Z,55.4
2022-11-24T02:42:24.874Z,55.4
2022-11-24T02:43:24.916Z,55.4
2022-11-24T02:44:24.939Z,55.5
2022-11-24T02:45:24.859Z,55.5
2022-11-24T02:46:24.927Z,55.5
2022-11-24T02:47:25.167Z,55.5
2022-11-24T02:48:24.854Z,55.5
2022-11-24T02:49:24.855Z,55.6
2022-11-24T02:50:24.862Z,55.6
2022-11-24T02:51:24.932Z,55.5
2022-11-24T02:52:24.869Z,55.5
2022-11-24T02:53:24.862Z,55.5
2022-11-24T02:54:24.912Z,55.5
2022-11-24T02:55:24.982Z,55.6
2022-11-24T02:56:24.884Z,55.6
2022-11-24T02:57:24.848Z,55.6
2022-11-24T02:58:24.853Z,55.6
2022-11-24T02:59:27.354Z,55.6
2022-11-24T03:00:25.088Z,55.6
2022-11-24T03:01:25.128Z,55.5
2022-11-24T03:02:24.917Z,55.5
2022-11-24T03:03:24.897Z,55.6
2022-11-24T03:04:25.030Z,55.6
2022-11-24T03:05:24.969Z,55.6
2022-11-24T03:06:29.457Z,55.6
2022-11-24T03:07:25.096Z,55.6
2022-11-24T03:08:24.891Z,55.7
2022-11-24T03:09:24.846Z,55.7
2022-11-24T03:10:24.918Z,55.7
2022-11-24T03:11:24.923Z,55.6
2022-11-24T03:12:24.898Z,55.6
2022-11-24T03:13:24.839Z,55.6
2022-11-24T03:14:24.909Z,55.6
2022-11-24T03:15:24.839Z,55.7
2022-11-24T03:16:24.880Z,55.7
2022-11-24T03:17:24.983Z,55.7
2022-11-24T03:18:24.843Z,55.7
2022-11-24T03:19:24.854Z,55.7
2022-11-24T03:20:24.833Z,55.7
2022-11-24T03:21:24.850Z,55.6
2022-11-24T03:22:24.950Z,55.6
2022-11-24T03:23:24.819Z,55.7
2022-11-24T03:24:26.393Z,55.7
2022-11-24T03:25:24.814Z,55.7
2022-11-24T03:26:24.827Z,55.7
2022-11-24T03:27:24.872Z,55.7
2022-11-24T03:28:24.824Z,55.8
2022-11-24T03:29:24.928Z,55.8
2022-11-24T03:30:24.900Z,55.8
2022-11-24T03:31:24.872Z,55.7
2022-11-24T03:32:24.818Z,55.7
2022-11-24T03:33:24.817Z,55.7
2022-11-24T03:34:24.804Z,55.7
2022-11-24T03:35:24.809Z,55.8
2022-11-24T03:36:24.808Z,55.8
2022-11-24T03:37:24.815Z,55.8
2022-11-24T03:38:24.835Z,55.8
2022-11-24T03:39:24.842Z,55.8
2022-11-24T03:40:24.812Z,55.8
2022-11-24T03:41:24.794Z,55.7
2022-11-24T03:42:24.812Z,55.7
2022-11-24T03:43:24.805Z,55.8
2022-11-24T03:44:24.837Z,55.8
2022-11-24T03:45:45.308Z,55.8
2022-11-24T03:46:24.904Z,55.8
2022-11-24T03:47:24.787Z,55.8
2022-11-24T03:48:24.865Z,55.9
2022-11-24T03:49:24.788Z,55.9
2022-11-24T03:50:24.783Z,55.9
2022-11-24T03:51:24.782Z,55.8
2022-11-24T03:52:24.813Z,55.8
2022-11-24T03:53:24.799Z,55.8
2022-11-24T03:54:24.780Z,55.9
2022-11-24T03:55:24.791Z,55.9
2022-11-24T03:56:24.785Z,55.9
2022-11-24T03:57:24.833Z,55.9
2022-11-24T03:58:24.763Z,55.9
2022-11-24T03:59:24.780Z,55.9
2022-11-24T04:00:24.834Z,55.9
2022-11-24T04:01:24.867Z,55.9
2022-11-24T04:02:24.840Z,55.9
2022-11-24T04:03:24.780Z,55.9
2022-11-24T04:04:24.790Z,55.9
2022-11-24T04:05:24.826Z,55.9
2022-11-24T04:06:24.798Z,56
2022-11-24T04:07:24.822Z,56
2022-11-24T04:08:24.795Z,56
2022-11-24T04:09:24.778Z,56
2022-11-24T04:10:24.761Z,56
2022-11-24T04:11:24.749Z,55.9
2022-11-24T04:12:24.760Z,55.9
2022-11-24T04:13:24.805Z,56
2022-11-24T04:14:24.757Z,56
2022-11-24T04:15:24.740Z,56
2022-11-24T04:16:24.821Z,56
2022-11-24T04:17:24.798Z,56
2022-11-24T04:18:24.806Z,56
2022-11-24T04:19:24.747Z,56
2022-11-24T04:20:24.767Z,56.1
2022-11-24T04:21:24.799Z,56
2022-11-24T04:22:24.758Z,56
2022-11-24T04:23:24.739Z,56
2022-11-24T04:24:24.764Z,56
2022-11-24T04:25:24.743Z,56
2022-11-24T04:26:24.780Z,56.1
2022-11-24T04:27:24.744Z,56.1
2022-11-24T04:28:24.749Z,56.1
2022-11-24T04:29:24.725Z,56.1
2022-11-24T04:30:24.731Z,56.1
2022-11-24T04:31:24.841Z,56
2022-11-24T04:32:24.784Z,56
2022-11-24T04:33:24.766Z,56.1
2022-11-24T04:34:24.772Z,56.1
2022-11-24T04:35:24.752Z,56.1
2022-11-24T04:36:24.734Z,56.1
2022-11-24T04:37:24.713Z,56.1
2022-11-24T04:39:20.441Z,56.1
2022-11-24T04:39:28.474Z,56.1
2022-11-24T04:40:24.760Z,56.2
2022-11-24T04:41:24.733Z,56.1
2022-11-24T04:42:24.722Z,56.1
2022-11-24T04:43:24.745Z,56.1
2022-11-24T04:44:24.766Z,56.1
2022-11-24T04:45:24.758Z,56.2
2022-11-24T04:46:24.734Z,56.2
2022-11-24T04:47:24.748Z,56.2
2022-11-24T04:48:24.708Z,56.2
2022-11-24T04:49:24.738Z,56.2
2022-11-24T04:50:24.707Z,56.2
2022-11-24T04:51:24.724Z,56.1
2022-11-24T04:52:24.763Z,56.1
2022-11-24T04:53:24.701Z,56.2
2022-11-24T04:54:24.716Z,56.2
2022-11-24T04:55:24.696Z,56.2
2022-11-24T04:56:24.705Z,56.2
2022-11-24T04:57:24.737Z,56.2
2022-11-24T04:58:24.702Z,56.2
2022-11-24T04:59:24.704Z,56.2
2022-11-24T05:00:24.739Z,56.2
2022-11-24T05:01:24.756Z,56.2
2022-11-24T05:02:24.698Z,56.2
2022-11-24T05:03:24.718Z,56.2
2022-11-24T05:04:24.739Z,56.2
2022-11-24T05:05:24.806Z,56.2
2022-11-24T05:06:24.701Z,56.2
2022-11-24T05:07:24.734Z,56.3
2022-11-24T05:08:24.685Z,56.3
2022-11-24T05:09:36.855Z,56.3
2022-11-24T05:10:24.799Z,56.3
2022-11-24T05:11:24.676Z,56.2
2022-11-24T05:12:24.663Z,56.2
2022-11-24T05:13:24.711Z,56.2
2022-11-24T05:14:24.714Z,56.3
2022-11-24T05:15:24.673Z,56.3
2022-11-24T05:16:24.756Z,56.3
2022-11-24T05:17:24.647Z,56.3
2022-11-24T05:18:24.715Z,56.3
2022-11-24T05:19:27.326Z,56.3
2022-11-24T05:20:24.659Z,56.3
2022-11-24T05:21:24.751Z,56.3
2022-11-24T05:22:24.632Z,56.2
2022-11-24T05:23:24.753Z,56.3
2022-11-24T05:24:24.760Z,56.3
2022-11-24T05:25:24.667Z,56.3
2022-11-24T05:26:24.655Z,56.3
2022-11-24T05:27:24.668Z,56.3
2022-11-24T05:28:24.702Z,56.3
2022-11-24T05:29:24.656Z,56.4
2022-11-24T05:30:24.652Z,56.4
2022-11-24T05:31:24.745Z,56.3
2022-11-24T05:32:24.688Z,56.3
2022-11-24T05:33:24.671Z,56.3
2022-11-24T05:34:24.682Z,56.3
2022-11-24T05:35:24.689Z,56.4
2022-11-24T05:36:24.679Z,56.4
2022-11-24T05:37:24.638Z,56.4
2022-11-24T05:38:24.628Z,56.4
2022-11-24T05:39:24.628Z,56.4
2022-11-24T05:40:24.642Z,56.4
2022-11-24T05:41:24.728Z,56.4
2022-11-24T05:42:24.714Z,56.3
2022-11-24T05:43:24.677Z,56.4
2022-11-24T05:44:24.651Z,56.4
2022-11-24T05:45:24.608Z,56.4
2022-11-24T05:46:24.656Z,56.4
2022-11-24T05:47:24.623Z,56.4
2022-11-24T05:48:24.619Z,56.4
2022-11-24T05:49:24.662Z,56.4
2022-11-24T05:50:24.675Z,56.4
2022-11-24T05:51:24.614Z,56.4
2022-11-24T05:52:24.687Z,56.4
2022-11-24T05:53:24.630Z,56.4
2022-11-24T05:54:24.620Z,56.4
2022-11-24T05:55:24.635Z,56.4
2022-11-24T05:56:24.611Z,56.4
2022-11-24T05:57:24.642Z,56.4
2022-11-24T05:58:24.658Z,56.5
2022-11-24T05:59:24.618Z,56.5
2022-11-24T06:00:24.636Z,56.5
2022-11-24T06:01:24.616Z,56.4
2022-11-24T06:02:24.663Z,56.4
2022-11-24T06:03:24.614Z,56.4
2022-11-24T06:04:24.630Z,56.5
2022-11-24T06:05:24.668Z,56.5
2022-11-24T06:06:24.674Z,56.5
2022-11-24T06:07:24.745Z,56.5
2022-11-24T06:08:29.609Z,56.5
2022-11-24T06:09:24.613Z,56.5
2022-11-24T06:10:24.608Z,56.5
2022-11-24T06:11:24.638Z,56.5
2022-11-24T06:12:24.665Z,56.4
2022-11-24T06:13:24.659Z,56.5
2022-11-24T06:14:24.587Z,56.5
2022-11-24T06:15:24.603Z,56.5
2022-11-24T06:16:24.634Z,56.5
2022-11-24T06:17:25.807Z,56.5
2022-11-24T06:18:24.609Z,56.5
2022-11-24T06:19:24.653Z,56.5
2022-11-24T06:20:28.461Z,56.5
2022-11-24T06:21:24.594Z,56.5
2022-11-24T06:22:24.596Z,56.5
2022-11-24T06:23:24.580Z,56.5
2022-11-24T06:24:24.604Z,56.5
2022-11-24T06:25:24.634Z,56.5
2022-11-24T06:26:24.582Z,56.5
2022-11-24T06:27:24.577Z,56.5
2022-11-24T06:28:24.576Z,56.5
2022-11-24T06:29:24.649Z,56.6
2022-11-24T06:30:24.630Z,56.6
2022-11-24T06:31:24.612Z,56.5
2022-11-24T06:32:24.552Z,56.5
2022-11-24T06:33:24.591Z,56.5
2022-11-24T06:34:24.567Z,56.6
2022-11-24T06:35:25.980Z,56.6
2022-11-24T06:36:24.635Z,56.6
2022-11-24T06:37:24.542Z,56.6
2022-11-24T06:38:24.624Z,56.6
2022-11-24T06:39:24.572Z,56.6
2022-11-24T06:40:24.590Z,56.6
2022-11-24T06:41:24.600Z,56.6
2022-11-24T06:42:24.630Z,56.5
2022-11-24T06:43:24.584Z,56.6
2022-11-24T06:44:24.575Z,56.6
2022-11-24T06:45:24.545Z,56.6
2022-11-24T06:46:24.600Z,56.6
2022-11-24T06:47:24.583Z,56.6
2022-11-24T06:48:24.617Z,56.6
2022-11-24T06:49:24.538Z,56.6
2022-11-24T06:50:26.924Z,56.6
2022-11-24T06:51:24.551Z,56.6
2022-11-24T06:52:24.545Z,56.6
2022-11-24T06:53:24.562Z,56.6
2022-11-24T06:54:24.571Z,56.6
2022-11-24T06:55:24.564Z,56.6
2022-11-24T06:56:24.585Z,56.6
2022-11-24T06:57:24.551Z,56.6
2022-11-24T06:58:24.588Z,56.6
2022-11-24T06:59:25.654Z,56.7
2022-11-24T07:00:28.998Z,56.7
2022-11-24T07:01:24.711Z,56.6
2022-11-24T07:02:24.529Z,56.6
2022-11-24T07:03:24.596Z,56.6
2022-11-24T07:04:25.587Z,56.6
2022-11-24T07:05:24.540Z,56.6
2022-11-24T07:06:24.588Z,56.7
2022-11-24T07:07:24.624Z,56.7
2022-11-24T07:08:24.612Z,56.7
2022-11-24T07:09:24.571Z,56.7
2022-11-24T07:10:24.545Z,56.7
2022-11-24T07:11:24.584Z,56.7
2022-11-24T07:12:24.573Z,56.6
2022-11-24T07:13:24.802Z,56.6
2022-11-24T07:14:24.568Z,56.7
2022-11-24T07:15:24.504Z,56.7
2022-11-24T07:16:24.604Z,56.7
2022-11-24T07:17:24.534Z,56.7
2022-11-24T07:18:24.550Z,56.7
2022-11-24T07:19:25.293Z,56.7
2022-11-24T07:20:24.541Z,56.7
2022-11-24T07:21:24.573Z,56.7
2022-11-24T07:22:24.485Z,56.6
2022-11-24T07:23:24.566Z,56.7
2022-11-24T07:24:24.535Z,56.7
2022-11-24T07:25:24.520Z,56.7
2022-11-24T07:26:24.553Z,56.7
2022-11-24T07:27:24.512Z,56.7
2022-11-24T07:28:24.495Z,56.7
2022-11-24T07:29:24.572Z,56.7
2022-11-24T07:30:24.500Z,56.8
2022-11-24T07:31:24.567Z,56.7
2022-11-24T07:32:24.495Z,56.7
2022-11-24T07:33:24.527Z,56.7
2022-11-24T07:34:24.561Z,56.7
2022-11-24T07:35:24.491Z,56.7
2022-11-24T07:36:24.523Z,56.7
2022-11-24T07:37:28.161Z,56.7
2022-11-24T07:38:24.470Z,56.7
2022-11-24T07:39:24.528Z,56.8
2022-11-24T07:40:24.581Z,56.8
2022-11-24T07:41:24.495Z,56.7
2022-11-24T07:42:24.583Z,56.7
2022-11-24T07:43:24.549Z,56.7
2022-11-24T07:44:24.565Z,56.7
2022-11-24T07:45:24.540Z,56.7
2022-11-24T07:46:24.604Z,56.7
2022-11-24T07:47:24.473Z,56.7
2022-11-24T07:48:24.468Z,56.7
2022-11-24T07:49:24.557Z,56.8
2022-11-24T07:50:24.598Z,56.8
2022-11-24T07:51:24.497Z,56.7
2022-11-24T07:52:24.485Z,56.7
2022-11-24T07:53:24.506Z,56.7
2022-11-24T07:54:24.534Z,56.7
2022-11-24T07:55:24.576Z,56.7
2022-11-24T07:56:24.482Z,56.8
2022-11-24T07:57:24.558Z,56.8
2022-11-24T07:58:27.660Z,56.8
2022-11-24T07:59:24.476Z,56.8
2022-11-24T08:00:24.529Z,56.8
2022-11-24T08:01:24.598Z,56.7
2022-11-24T08:02:24.533Z,56.7
2022-11-24T08:03:24.678Z,56.7
2022-11-24T08:04:24.490Z,56.7
2022-11-24T08:05:24.472Z,56.8
2022-11-24T08:06:27.643Z,56.8
2022-11-24T08:07:24.566Z,56.8
2022-11-24T08:08:24.475Z,56.8
2022-11-24T08:09:24.515Z,56.8
2022-11-24T08:10:24.498Z,56.8
2022-11-24T08:11:24.474Z,56.8
2022-11-24T08:12:24.473Z,56.7
2022-11-24T08:13:24.429Z,56.7
2022-11-24T08:14:24.438Z,56.8
2022-11-24T08:15:24.477Z,56.8
2022-11-24T08:16:24.542Z,56.8
2022-11-24T08:17:24.478Z,56.8
2022-11-24T08:18:24.488Z,56.8
2022-11-24T08:19:24.442Z,56.8
2022-11-24T08:20:24.585Z,56.8
2022-11-24T08:21:24.476Z,56.8
2022-11-24T08:22:24.445Z,56.7
2022-11-24T08:23:24.429Z,56.8
2022-11-24T08:24:24.445Z,56.8
2022-11-24T08:25:24.663Z,56.8
2022-11-24T08:26:24.519Z,56.8
2022-11-24T08:27:24.490Z,56.8
2022-11-24T08:28:24.430Z,56.8
2022-11-24T08:29:24.448Z,56.8
2022-11-24T08:30:24.463Z,56.8
2022-11-24T08:31:24.526Z,56.8
2022-11-24T08:32:24.489Z,56.8
2022-11-24T08:33:24.422Z,56.8
2022-11-24T08:34:24.436Z,56.8
2022-11-24T08:35:24.491Z,56.8
2022-11-24T08:36:24.472Z,56.8
2022-11-24T08:37:24.471Z,56.8
2022-11-24T08:38:28.649Z,56.8
2022-11-24T08:39:24.489Z,56.9
2022-11-24T08:40:24.542Z,56.9
2022-11-24T08:41:24.469Z,56.8
2022-11-24T08:42:24.432Z,56.8
2022-11-24T08:43:26.181Z,56.8
2022-11-24T08:44:24.442Z,56.8
2022-11-24T08:45:25.609Z,56.8
2022-11-24T08:46:24.527Z,56.8
2022-11-24T08:47:24.399Z,56.8
2022-11-24T08:48:24.414Z,56.8
2022-11-24T08:49:24.444Z,56.8
2022-11-24T08:50:24.435Z,56.8
2022-11-24T08:51:24.396Z,56.8
2022-11-24T08:52:24.379Z,56.7
2022-11-24T08:53:24.411Z,56.8
2022-11-24T08:54:24.425Z,56.8
2022-11-24T08:55:24.401Z,56.8
2022-11-24T08:56:24.417Z,56.8
2022-11-24T08:57:24.410Z,56.8
2022-11-24T08:58:24.391Z,56.8
2022-11-24T08:59:24.576Z,56.8
2022-11-24T09:00:24.376Z,56.8
2022-11-24T09:01:24.448Z,56.8
2022-11-24T09:02:24.436Z,56.7
2022-11-24T09:03:24.405Z,56.8
2022-11-24T09:04:24.436Z,56.8
2022-11-24T09:05:50.508Z,56.8
2022-11-24T09:06:24.460Z,56.8
2022-11-24T09:07:24.442Z,56.8
2022-11-24T09:08:24.403Z,56.8
2022-11-24T09:09:24.447Z,56.8
2022-11-24T09:10:24.358Z,56.8
2022-11-24T09:11:24.403Z,56.8
2022-11-24T09:12:24.375Z,56.8
2022-11-24T09:13:24.351Z,56.8
2022-11-24T09:14:24.356Z,56.8
2022-11-24T09:15:24.333Z,56.8
2022-11-24T09:16:25.704Z,56.8
2022-11-24T09:17:24.435Z,56.8
2022-11-24T09:18:28.949Z,56.8
2022-11-24T09:19:24.374Z,56.8
2022-11-24T09:20:24.366Z,56.8
2022-11-24T09:21:24.366Z,56.8
2022-11-24T09:22:24.345Z,56.7
2022-11-24T09:23:24.381Z,56.8
2022-11-24T09:24:24.395Z,56.8
2022-11-24T09:25:24.730Z,56.8
2022-11-24T09:26:24.326Z,56.8
2022-11-24T09:27:24.328Z,56.8
2022-11-24T09:28:24.556Z,56.8
2022-11-24T09:29:24.445Z,56.8
2022-11-24T09:30:24.431Z,56.8
2022-11-24T09:31:24.396Z,56.8
2022-11-24T09:32:24.400Z,56.7
2022-11-24T09:33:24.343Z,56.8
2022-11-24T09:34:24.388Z,56.8
2022-11-24T09:35:24.339Z,56.8
2022-11-24T09:36:24.341Z,56.8
2022-11-24T09:37:28.178Z,56.8
2022-11-24T09:38:24.360Z,56.8
2022-11-24T09:39:24.330Z,56.8
2022-11-24T09:40:24.406Z,56.8
2022-11-24T09:41:24.350Z,56.8
2022-11-24T09:42:24.415Z,56.7
2022-11-24T09:43:24.299Z,56.8
2022-11-24T09:44:24.310Z,56.8
2022-11-24T09:45:41.942Z,56.8
2022-11-24T09:46:24.406Z,56.8
2022-11-24T09:47:24.344Z,56.8
2022-11-24T09:48:24.301Z,56.8
2022-11-24T09:49:24.340Z,56.8
2022-11-24T09:50:24.305Z,56.8
2022-11-24T09:51:24.298Z,56.8
2022-11-24T09:52:24.302Z,56.8
2022-11-24T09:53:24.317Z,56.8
2022-11-24T09:54:24.314Z,56.8
2022-11-24T09:55:24.359Z,56.8
2022-11-24T09:56:24.298Z,56.8
2022-11-24T09:57:24.310Z,56.8
2022-11-24T09:58:24.291Z,56.8
2022-11-24T09:59:24.296Z,56.8
2022-11-24T10:00:24.331Z,56.8
2022-11-24T10:01:24.464Z,56.8
2022-11-24T10:02:24.360Z,56.7
2022-11-24T10:03:24.301Z,56.8
2022-11-24T10:04:24.424Z,56.8
2022-11-24T10:05:24.321Z,56.8
2022-11-24T10:06:24.325Z,56.8
2022-11-24T10:07:24.363Z,56.8
2022-11-24T10:08:24.316Z,56.8
2022-11-24T10:09:24.284Z,56.8
2022-11-24T10:10:25.146Z,56.8
2022-11-24T10:11:24.294Z,56.8
2022-11-24T10:12:24.319Z,56.7
2022-11-24T10:13:24.310Z,56.8
2022-11-24T10:14:24.292Z,56.8
2022-11-24T10:15:24.338Z,56.8
2022-11-24T10:16:24.362Z,56.8
2022-11-24T10:17:24.262Z,56.8
2022-11-24T10:18:24.300Z,56.8
2022-11-24T10:19:30.503Z,56.8
2022-11-24T10:20:24.296Z,56.8
2022-11-24T10:21:24.327Z,56.8
2022-11-24T10:22:24.271Z,56.7
2022-11-24T10:23:24.355Z,56.8
2022-11-24T10:24:24.314Z,56.8
2022-11-24T10:25:24.257Z,56.8
2022-11-24T10:26:24.266Z,56.8
2022-11-24T10:27:24.249Z,56.8
2022-11-24T10:28:24.314Z,56.8
2022-11-24T10:29:24.287Z,56.8
2022-11-24T10:30:24.256Z,56.8
2022-11-24T10:31:24.328Z,56.8
2022-11-24T10:32:24.282Z,56.8
2022-11-24T10:33:27.185Z,56.8
2022-11-24T10:34:24.351Z,56.8
2022-11-24T10:35:24.289Z,56.8
2022-11-24T10:36:24.357Z,56.8
2022-11-24T10:37:24.235Z,56.8
2022-11-24T10:38:24.254Z,56.8
2022-11-24T10:39:24.237Z,56.8
2022-11-24T10:40:49.004Z,56.8
2022-11-24T10:41:24.290Z,56.8
2022-11-24T10:42:24.231Z,56.8
2022-11-24T10:43:24.317Z,56.8
2022-11-24T10:44:24.246Z,56.8
2022-11-24T10:45:24.271Z,56.8
2022-11-24T10:46:24.321Z,56.8
2022-11-24T10:47:24.269Z,56.8
2022-11-24T10:48:24.237Z,56.8
2022-11-24T10:49:24.272Z,56.8
2022-11-24T10:50:24.274Z,56.8
2022-11-24T10:51:24.225Z,56.8
2022-11-24T10:52:24.279Z,56.7
2022-11-24T10:53:24.249Z,56.8
2022-11-24T10:54:24.265Z,56.8
2022-11-24T10:55:24.265Z,56.8
2022-11-24T10:56:24.519Z,56.8
2022-11-24T10:57:24.271Z,56.8
2022-11-24T10:58:24.210Z,56.8
2022-11-24T10:59:24.253Z,56.8
2022-11-24T11:00:24.204Z,56.8
2022-11-24T11:01:24.275Z,56.8
2022-11-24T11:02:24.341Z,56.8
2022-11-24T11:03:24.249Z,56.8
2022-11-24T11:04:24.255Z,56.8
2022-11-24T11:05:24.238Z,56.8
2022-11-24T11:06:24.269Z,56.8
2022-11-24T11:07:24.418Z,56.8
2022-11-24T11:08:25.592Z,56.8
2022-11-24T11:09:24.382Z,56.8
2022-11-24T11:10:24.251Z,56.8
2022-11-24T11:11:24.185Z,56.8
2022-11-24T11:12:43.702Z,56.8
2022-11-24T11:13:24.305Z,56.8
2022-11-24T11:14:24.196Z,56.8
2022-11-24T11:15:24.247Z,56.8
2022-11-24T11:16:24.271Z,56.8
2022-11-24T11:17:24.264Z,56.8
2022-11-24T11:18:24.194Z,56.8
2022-11-24T11:19:47.685Z,56.8
2022-11-24T11:20:24.192Z,56.8
2022-11-24T11:21:24.188Z,56.8
2022-11-24T11:22:24.236Z,56.8
2022-11-24T11:23:24.236Z,56.8
2022-11-24T11:24:24.264Z,56.8
2022-11-24T11:25:24.264Z,56.8
2022-11-24T11:26:24.204Z,56.8
2022-11-24T11:27:24.239Z,56.8
2022-11-24T11:28:24.346Z,56.8
2022-11-24T11:31:24.677Z,56.8
2022-11-24T11:34:29.913Z,56.8
2022-11-24T11:35:24.181Z,56.8
2022-11-24T11:36:24.238Z,56.8
2022-11-24T11:37:24.156Z,56.8
2022-11-24T11:38:24.179Z,56.8
2022-11-24T11:39:24.487Z,56.8
2022-11-24T11:40:24.211Z,56.8
2022-11-24T11:41:24.249Z,56.8
2022-11-24T11:42:45.785Z,56.7
2022-11-24T11:43:24.176Z,56.8
2022-11-24T11:44:24.155Z,56.8
2022-11-24T11:45:24.230Z,56.8
2022-11-24T11:46:24.277Z,56.8
2022-11-24T11:47:24.146Z,56.8
2022-11-24T11:48:24.188Z,56.8
2022-11-24T11:49:24.461Z,56.8
2022-11-24T11:50:24.285Z,56.8
2022-11-24T11:51:24.638Z,56.8
2022-11-24T11:52:24.305Z,56.7
2022-11-24T11:53:24.188Z,56.8
2022-11-24T11:54:24.166Z,56.8
2022-11-24T11:55:24.154Z,56.8
2022-11-24T11:56:24.208Z,56.8
2022-11-24T11:57:24.147Z,56.8
2022-11-24T11:58:24.149Z,56.8
2022-11-24T11:59:24.191Z,56.8
2022-11-24T12:00:24.190Z,56.8
2022-11-24T12:01:24.176Z,56.8
2022-11-24T12:02:24.331Z,56.7
2022-11-24T12:03:24.220Z,56.7
2022-11-24T12:04:24.138Z,56.7
2022-11-24T12:05:24.272Z,56.8
2022-11-24T12:06:24.258Z,56.8
2022-11-24T12:07:24.249Z,56.8
2022-11-24T12:08:26.202Z,56.8
2022-11-24T12:09:26.446Z,56.8
2022-11-24T12:10:24.121Z,56.8
2022-11-24T12:11:24.205Z,56.8
2022-11-24T12:12:25.354Z,56.7
2022-11-24T12:13:24.136Z,56.7
2022-11-24T12:14:24.201Z,56.7
2022-11-24T12:15:24.169Z,56.7
2022-11-24T12:16:24.232Z,56.8
2022-11-24T12:17:24.117Z,56.7
2022-11-24T12:18:48.946Z,56.7
2022-11-24T12:19:24.157Z,56.8
2022-11-24T12:20:24.109Z,56.8
2022-11-24T12:21:26.536Z,56.7
2022-11-24T12:22:24.134Z,56.6
2022-11-24T12:23:24.126Z,56.7
2022-11-24T12:24:24.330Z,56.7
2022-11-24T12:25:24.122Z,56.7
2022-11-24T12:26:24.095Z,56.7
2022-11-24T12:27:24.161Z,56.7
2022-11-24T12:28:24.143Z,56.7
2022-11-24T12:29:24.152Z,56.7
2022-11-24T12:30:24.127Z,56.7
2022-11-24T12:31:24.186Z,56.7
2022-11-24T12:32:24.127Z,56.6
2022-11-24T12:33:24.082Z,56.6
2022-11-24T12:34:24.135Z,56.6
2022-11-24T12:35:24.141Z,56.6
2022-11-24T12:36:24.134Z,56.7
2022-11-24T12:37:24.120Z,56.6
2022-11-24T12:38:24.141Z,56.6
2022-11-24T12:39:24.531Z,56.6
2022-11-24T12:40:24.152Z,56.6
2022-11-24T12:41:40.916Z,56.6
2022-11-24T12:42:24.151Z,56.5
2022-11-24T12:43:24.468Z,56.5
2022-11-24T12:44:24.125Z,56.6
2022-11-24T12:45:25.384Z,56.6
2022-11-24T12:46:24.152Z,56.6
2022-11-24T12:47:24.138Z,56.6
2022-11-24T12:48:24.268Z,56.6
2022-11-24T12:49:24.176Z,56.6
2022-11-24T12:50:24.141Z,56.6
2022-11-24T12:51:24.133Z,56.5
2022-11-24T12:52:24.183Z,56.4
2022-11-24T12:53:24.294Z,56.4
2022-11-24T12:54:24.196Z,56.5
2022-11-24T12:55:24.149Z,56.5
2022-11-24T12:56:24.173Z,56.5
2022-11-24T12:57:26.699Z,56.5
2022-11-24T12:58:24.309Z,56.5
2022-11-24T12:59:24.180Z,56.5
2022-11-24T13:00:24.436Z,56.5
2022-11-24T13:01:24.215Z,56.4
2022-11-24T13:02:24.325Z,56.3
2022-11-24T13:03:24.093Z,56.3
2022-11-24T13:04:24.858Z,56.4
2022-11-24T13:05:24.076Z,56.3
2022-11-24T13:06:24.100Z,56.3
2022-11-24T13:07:24.101Z,56.3
2022-11-24T13:08:24.074Z,56.3
2022-11-24T13:09:24.094Z,56.3
2022-11-24T13:10:40.382Z,56.3
2022-11-24T13:11:24.173Z,56.3
2022-11-24T13:12:24.047Z,56.2
2022-11-24T13:13:24.108Z,56.2
2022-11-24T13:14:24.300Z,56.2
2022-11-24T13:15:36.392Z,56.2
2022-11-24T13:16:48.373Z,56.2
2022-11-24T13:17:39.553Z,56.2
2022-11-24T13:18:26.704Z,56.2
2022-11-24T13:19:24.192Z,56.2
2022-11-24T13:20:24.082Z,56.2
2022-11-24T13:21:24.408Z,56.2
2022-11-24T13:22:24.074Z,56
2022-11-24T13:23:24.212Z,56.1
2022-11-24T13:24:24.026Z,56.1
2022-11-24T13:25:24.033Z,56.1
2022-11-24T13:26:24.066Z,56.1
2022-11-24T13:27:24.208Z,56.1